createdAt,value
2019-02-18T00:00:38.757Z,16.15
2019-02-18T00:03:08.347Z,14.83
2019-02-18T00:05:37.630Z,17.23
2019-02-18T00:08:06.771Z,17.17
2019-02-18T00:10:35.791Z,16.60
2019-02-18T00:13:05.029Z,16.30
2019-02-18T00:15:34.008Z,17.17
2019-02-18T00:18:03.068Z,16.97
2019-02-18T00:20:32.149Z,18.80
2019-02-18T00:23:01.115Z,16.10
2019-02-18T00:25:30.414Z,16.50
2019-02-18T00:27:59.375Z,17.60
2019-02-18T00:30:28.374Z,17.67
2019-02-18T00:32:57.334Z,16.87
2019-02-18T00:35:26.306Z,17.00
2019-02-18T00:37:55.358Z,18.92
2019-02-18T00:40:24.506Z,18.10
2019-02-18T00:42:53.506Z,19.20
2019-02-18T00:45:22.558Z,17.10
2019-02-18T00:47:51.518Z,17.50
2019-02-18T00:50:20.663Z,20.35
2019-02-18T00:52:49.692Z,19.00
2019-02-18T00:55:18.839Z,18.67
2019-02-18T00:57:48.070Z,18.35
2019-02-18T01:00:17.412Z,17.07
2019-02-18T01:02:46.792Z,17.98
2019-02-18T01:05:15.918Z,19.00
2019-02-18T01:07:45.271Z,18.10
2019-02-18T01:10:14.319Z,17.92
2019-02-18T01:12:43.521Z,17.52
2019-02-18T01:15:14.441Z,19.90
2019-02-18T01:17:43.554Z,18.12
2019-02-18T01:20:13.969Z,19.30
2019-02-18T01:22:43.082Z,20.32
2019-02-18T01:25:13.633Z,19.05
2019-02-18T01:27:42.669Z,18.42
2019-02-18T01:30:16.190Z,20.37
2019-02-18T01:32:45.209Z,20.40
2019-02-18T01:35:14.419Z,20.57
2019-02-18T01:37:46.014Z,20.92
2019-02-18T01:40:15.182Z,19.00
2019-02-18T01:42:44.208Z,18.02
2019-02-18T01:45:14.484Z,20.55
2019-02-18T01:47:43.765Z,18.45
2019-02-18T01:50:15.031Z,19.37
2019-02-18T01:52:44.067Z,18.10
2019-02-18T01:55:13.946Z,19.17
2019-02-18T01:57:42.958Z,17.70
2019-02-18T02:00:14.497Z,18.35
2019-02-18T02:02:44.020Z,18.10
2019-02-18T02:05:17.308Z,18.15
2019-02-18T02:07:55.397Z,17.60
2019-02-18T02:10:17.139Z,18.82
2019-02-18T02:12:46.434Z,20.17
2019-02-18T02:15:27.207Z,19.12
2019-02-18T02:17:56.315Z,18.75
2019-02-18T02:20:25.419Z,18.17
2019-02-18T02:22:54.457Z,16.70
2019-02-18T02:25:23.707Z,18.65
2019-02-18T02:27:52.683Z,17.73
2019-02-18T02:30:21.845Z,19.12
2019-02-18T02:32:50.883Z,19.67
2019-02-18T02:35:19.865Z,17.95
2019-02-18T02:37:48.849Z,19.00
2019-02-18T02:40:18.008Z,18.98
2019-02-18T02:42:46.972Z,17.45
2019-02-18T02:45:15.956Z,17.10
2019-02-18T02:47:44.996Z,16.87
2019-02-18T02:50:14.344Z,18.07
2019-02-18T02:52:43.446Z,19.62
2019-02-18T02:55:12.496Z,18.57
2019-02-18T02:57:41.470Z,18.75
2019-02-18T03:00:14.894Z,18.48
2019-02-18T03:02:44.022Z,20.02
2019-02-18T03:05:13.187Z,17.73
2019-02-18T03:07:42.219Z,19.32
2019-02-18T03:10:14.602Z,18.05
2019-02-18T03:12:43.801Z,19.85
2019-02-18T03:15:15.636Z,18.30
2019-02-18T03:17:44.948Z,19.17
2019-02-18T03:20:14.049Z,19.07
2019-02-18T03:22:43.083Z,20.30
2019-02-18T03:25:23.680Z,20.12
2019-02-18T03:28:04.534Z,20.10
2019-02-18T03:30:42.746Z,17.80
2019-02-18T03:33:17.408Z,18.00
2019-02-18T03:35:46.479Z,17.70
2019-02-18T03:38:15.462Z,17.98
2019-02-18T03:40:44.576Z,18.55
2019-02-18T03:43:13.676Z,17.75
2019-02-18T03:45:42.655Z,17.05
2019-02-18T03:48:11.677Z,16.00
2019-02-18T03:50:40.745Z,17.60
2019-02-18T03:53:09.720Z,15.08
2019-02-18T03:55:38.753Z,19.35
2019-02-18T03:58:08.449Z,17.05
2019-02-18T04:00:37.572Z,17.73
2019-02-18T04:03:06.589Z,17.48
2019-02-18T04:05:35.620Z,16.37
2019-02-18T04:08:04.622Z,19.87
2019-02-18T04:10:33.608Z,17.30
2019-02-18T04:13:02.671Z,17.20
2019-02-18T04:15:31.624Z,17.10
2019-02-18T04:18:00.622Z,19.27
2019-02-18T04:20:29.579Z,18.25
2019-02-18T04:22:58.532Z,17.57
2019-02-18T04:25:27.527Z,15.32
2019-02-18T04:27:56.563Z,16.82
2019-02-18T04:30:25.667Z,17.25
2019-02-18T04:32:54.645Z,16.40
2019-02-18T04:35:23.671Z,17.92
2019-02-18T04:37:52.637Z,17.85
2019-02-18T04:40:21.767Z,17.48
2019-02-18T04:42:50.765Z,16.40
2019-02-18T04:45:19.741Z,16.93
2019-02-18T04:47:48.705Z,18.12
2019-02-18T04:50:17.682Z,18.30
2019-02-18T04:52:46.640Z,17.37
2019-02-18T04:55:15.768Z,18.05
2019-02-18T04:57:44.831Z,17.98
2019-02-18T05:00:14.073Z,19.87
2019-02-18T05:02:43.111Z,17.17
2019-02-18T05:05:12.094Z,18.42
2019-02-18T05:07:41.102Z,17.12
2019-02-18T05:10:11.713Z,18.90
2019-02-18T05:12:40.770Z,17.32
2019-02-18T05:15:10.445Z,17.23
2019-02-18T05:17:39.474Z,20.15
2019-02-18T05:20:09.384Z,18.45
2019-02-18T05:22:38.366Z,18.37
2019-02-18T05:25:09.065Z,16.77
2019-02-18T05:27:38.053Z,16.62
2019-02-18T05:30:10.151Z,21.50
2019-02-18T05:32:39.131Z,18.02
2019-02-18T05:35:08.541Z,21.02
2019-02-18T05:37:37.609Z,20.08
2019-02-18T05:40:08.403Z,17.17
2019-02-18T05:42:37.439Z,22.15
2019-02-18T05:45:08.579Z,21.50
2019-02-18T05:47:37.616Z,17.62
2019-02-18T05:50:08.227Z,22.15
2019-02-18T05:52:37.216Z,21.82
2019-02-18T05:55:07.233Z,24.05
2019-02-18T05:57:36.269Z,30.20
2019-02-18T06:00:09.432Z,21.87
2019-02-18T06:02:38.424Z,20.25
2019-02-18T06:05:08.132Z,21.90
2019-02-18T06:07:37.117Z,21.42
2019-02-18T06:10:08.823Z,25.35
2019-02-18T06:12:37.915Z,18.95
2019-02-18T06:15:09.558Z,22.02
2019-02-18T06:17:38.544Z,25.45
2019-02-18T06:20:09.421Z,19.00
2019-02-18T06:22:38.892Z,19.45
2019-02-18T06:25:08.268Z,19.67
2019-02-18T06:27:37.365Z,19.90
2019-02-18T06:30:09.386Z,17.12
2019-02-18T06:32:38.420Z,23.25
2019-02-18T06:35:07.943Z,18.80
2019-02-18T06:37:36.901Z,24.80
2019-02-18T06:40:08.702Z,26.17
2019-02-18T06:42:37.738Z,20.77
2019-02-18T06:45:11.906Z,22.37
2019-02-18T06:47:41.059Z,20.72
2019-02-18T06:50:10.040Z,22.07
2019-02-18T06:52:39.275Z,19.27
2019-02-18T06:55:08.270Z,26.20
2019-02-18T06:57:41.625Z,28.05
2019-02-18T07:00:12.597Z,32.63
2019-02-18T07:02:43.197Z,36.53
2019-02-18T07:05:16.758Z,31.27
2019-02-18T07:07:47.450Z,29.98
2019-02-18T07:10:18.065Z,28.47
2019-02-18T07:12:47.795Z,31.37
2019-02-18T07:15:16.771Z,31.15
2019-02-18T07:17:45.749Z,33.63
2019-02-18T07:20:14.756Z,36.05
2019-02-18T07:22:43.734Z,34.53
2019-02-18T07:25:12.769Z,23.60
2019-02-18T07:27:42.937Z,30.57
2019-02-18T07:30:13.459Z,31.07
2019-02-18T07:32:42.465Z,32.80
2019-02-18T07:35:11.571Z,25.10
2019-02-18T07:37:40.552Z,27.42
2019-02-18T07:40:10.257Z,29.70
2019-02-18T07:42:39.228Z,26.90
2019-02-18T07:45:09.983Z,27.05
2019-02-18T07:47:38.960Z,24.55
2019-02-18T07:50:19.930Z,27.07
2019-02-18T07:52:40.469Z,30.37
2019-02-18T07:55:10.457Z,29.75
2019-02-18T07:57:39.471Z,44.40
2019-02-18T08:00:11.946Z,23.60
2019-02-18T08:02:41.014Z,25.27
2019-02-18T08:05:10.199Z,26.57
2019-02-18T08:07:39.256Z,26.82
2019-02-18T08:10:12.284Z,24.23
2019-02-18T08:12:41.263Z,26.05
2019-02-18T08:15:11.147Z,29.20
2019-02-18T08:17:40.322Z,25.25
2019-02-18T08:20:11.427Z,25.82
2019-02-18T08:22:40.381Z,21.15
2019-02-18T08:25:13.779Z,20.45
2019-02-18T08:27:42.818Z,25.00
2019-02-18T08:30:15.540Z,21.48
2019-02-18T08:32:44.595Z,21.77
2019-02-18T08:35:13.621Z,21.80
2019-02-18T08:37:42.593Z,21.20
2019-02-18T08:40:21.672Z,25.02
2019-02-18T08:42:42.271Z,23.35
2019-02-18T08:45:12.805Z,24.37
2019-02-18T08:47:42.102Z,21.30
2019-02-18T08:50:12.630Z,21.02
2019-02-18T08:52:41.602Z,26.48
2019-02-18T08:55:12.860Z,24.02
2019-02-18T08:57:41.830Z,21.42
2019-02-18T09:00:13.522Z,19.40
2019-02-18T09:02:42.525Z,23.57
2019-02-18T09:05:11.667Z,19.67
2019-02-18T09:07:41.004Z,16.80
2019-02-18T09:10:12.497Z,18.02
2019-02-18T09:12:41.500Z,22.80
2019-02-18T09:15:11.201Z,20.75
2019-02-18T09:17:40.167Z,19.23
2019-02-18T09:20:11.133Z,21.50
2019-02-18T09:22:44.518Z,20.15
2019-02-18T09:25:17.959Z,17.92
2019-02-18T09:27:46.923Z,21.05
2019-02-18T09:30:17.534Z,18.35
2019-02-18T09:32:46.501Z,22.42
2019-02-18T09:35:15.486Z,19.92
2019-02-18T09:37:44.546Z,24.43
2019-02-18T09:40:13.652Z,21.87
2019-02-18T09:42:42.688Z,19.60
2019-02-18T09:45:14.725Z,23.57
2019-02-18T09:47:44.808Z,22.75
2019-02-18T09:50:13.775Z,25.17
2019-02-18T09:52:42.775Z,23.42
2019-02-18T09:55:11.851Z,22.30
2019-02-18T09:57:40.942Z,25.57
2019-02-18T10:00:11.787Z,27.65
2019-02-18T10:02:40.751Z,25.68
2019-02-18T10:05:10.085Z,22.02
2019-02-18T10:07:39.124Z,26.77
2019-02-18T10:10:10.529Z,28.95
2019-02-18T10:12:39.532Z,26.30
2019-02-18T10:15:12.441Z,30.00
2019-02-18T10:17:41.602Z,25.85
2019-02-18T10:20:14.063Z,22.82
2019-02-18T10:22:43.329Z,32.40
2019-02-18T10:25:13.742Z,33.73
2019-02-18T10:27:42.761Z,36.15
2019-02-18T10:30:12.335Z,33.05
2019-02-18T10:32:41.304Z,30.90
2019-02-18T10:35:12.032Z,31.77
2019-02-18T10:37:41.274Z,33.05
2019-02-18T10:40:11.251Z,30.10
2019-02-18T10:42:40.284Z,31.40
2019-02-18T10:45:11.519Z,37.67
2019-02-18T10:47:40.821Z,26.50
2019-02-18T10:50:11.363Z,36.88
2019-02-18T10:52:40.409Z,33.28
2019-02-18T10:55:10.901Z,27.77
2019-02-18T10:57:40.483Z,28.45
2019-02-18T11:00:13.233Z,27.73
2019-02-18T11:02:42.232Z,26.77
2019-02-18T11:05:11.692Z,28.05
2019-02-18T11:07:40.722Z,22.98
2019-02-18T11:10:15.286Z,23.55
2019-02-18T11:12:44.453Z,22.50
2019-02-18T11:15:14.841Z,21.85
2019-02-18T11:17:44.499Z,29.95
2019-02-18T11:20:14.491Z,25.30
2019-02-18T11:22:43.606Z,21.73
2019-02-18T11:25:14.698Z,20.72
2019-02-18T11:27:43.950Z,18.98
2019-02-18T11:30:17.361Z,18.67
2019-02-18T11:32:46.536Z,18.12
2019-02-18T11:35:15.544Z,16.57
2019-02-18T11:37:44.507Z,18.48
2019-02-18T11:40:18.271Z,19.17
2019-02-18T11:42:47.325Z,16.57
2019-02-18T11:45:17.835Z,17.37
2019-02-18T11:47:46.955Z,18.25
2019-02-18T11:50:16.298Z,17.23
2019-02-18T11:52:45.508Z,18.92
2019-02-18T11:55:15.463Z,15.58
2019-02-18T11:57:45.417Z,16.77
2019-02-18T12:00:15.728Z,17.52
2019-02-18T12:02:45.051Z,16.93
2019-02-18T12:05:14.167Z,17.98
2019-02-18T12:07:43.281Z,17.77
2019-02-18T12:10:13.565Z,15.20
2019-02-18T12:12:42.892Z,16.45
2019-02-18T12:15:15.554Z,17.23
2019-02-18T12:17:44.601Z,15.05
2019-02-18T12:20:16.986Z,15.38
2019-02-18T12:22:46.081Z,17.30
2019-02-18T12:25:15.183Z,16.50
2019-02-18T12:27:44.716Z,14.65
2019-02-18T12:30:16.102Z,13.58
2019-02-18T12:32:45.604Z,11.97
2019-02-18T12:35:14.695Z,15.68
2019-02-18T12:37:43.668Z,16.17
2019-02-18T12:40:14.041Z,15.23
2019-02-18T12:42:43.148Z,17.37
2019-02-18T12:45:13.310Z,18.30
2019-02-18T12:47:42.484Z,21.12
2019-02-18T12:50:12.398Z,17.73
2019-02-18T12:52:41.428Z,20.50
2019-02-18T12:55:11.574Z,22.02
2019-02-18T12:57:40.964Z,21.35
2019-02-18T13:00:16.352Z,20.62
2019-02-18T13:02:45.531Z,20.52
2019-02-18T13:05:15.172Z,22.15
2019-02-18T13:07:44.254Z,20.70
2019-02-18T13:10:13.949Z,16.97
2019-02-18T13:12:43.515Z,15.98
2019-02-18T13:15:17.529Z,18.25
2019-02-18T13:17:46.733Z,14.53
2019-02-18T13:20:15.771Z,15.18
2019-02-18T13:22:44.909Z,14.33
2019-02-18T13:25:14.029Z,14.50
2019-02-18T13:27:43.262Z,14.85
2019-02-18T13:30:17.458Z,14.18
2019-02-18T13:32:46.518Z,14.60
2019-02-18T13:35:15.718Z,13.32
2019-02-18T13:37:44.789Z,11.35
2019-02-18T13:40:16.386Z,11.57
2019-02-18T13:42:45.829Z,12.75
2019-02-18T13:45:14.868Z,14.47
2019-02-18T13:47:43.925Z,11.20
2019-02-18T13:50:14.195Z,11.38
2019-02-18T13:52:43.440Z,15.45
2019-02-18T13:55:14.078Z,14.80
2019-02-18T13:57:43.545Z,13.93
2019-02-18T14:00:19.725Z,14.18
2019-02-18T14:02:50.188Z,12.28
2019-02-18T14:05:21.136Z,13.32
2019-02-18T14:07:50.210Z,13.35
2019-02-18T14:10:21.272Z,12.63
2019-02-18T14:12:50.239Z,15.75
2019-02-18T14:15:19.537Z,13.85
2019-02-18T14:17:50.492Z,11.90
2019-02-18T14:20:19.394Z,13.32
2019-02-18T14:22:48.657Z,14.93
2019-02-18T14:25:17.918Z,13.48
2019-02-18T14:27:46.956Z,14.23
2019-02-18T14:30:17.734Z,13.85
2019-02-18T14:32:46.816Z,12.75
2019-02-18T14:35:18.822Z,14.30
2019-02-18T14:37:48.738Z,12.30
2019-02-18T14:40:19.288Z,12.58
2019-02-18T14:42:48.370Z,13.13
2019-02-18T14:45:17.678Z,14.43
2019-02-18T14:47:46.968Z,15.80
2019-02-18T14:50:18.027Z,20.17
2019-02-18T14:52:47.737Z,12.00
2019-02-18T14:55:16.712Z,18.10
2019-02-18T14:57:45.835Z,13.95
2019-02-18T15:00:19.137Z,15.30
2019-02-18T15:02:49.146Z,16.93
2019-02-18T15:05:18.533Z,22.95
2019-02-18T15:07:47.540Z,27.65
2019-02-18T15:10:16.705Z,16.73
2019-02-18T15:12:46.042Z,16.20
2019-02-18T15:15:15.383Z,18.77
2019-02-18T15:17:44.677Z,15.28
2019-02-18T15:20:13.776Z,14.75
2019-02-18T15:22:42.865Z,14.98
2019-02-18T15:25:12.038Z,16.55
2019-02-18T15:27:41.251Z,13.45
2019-02-18T15:30:15.758Z,16.85
2019-02-18T15:32:45.223Z,12.37
2019-02-18T15:35:15.393Z,14.38
2019-02-18T15:37:44.498Z,12.98
2019-02-18T15:40:15.542Z,13.15
2019-02-18T15:42:44.642Z,13.88
2019-02-18T15:45:14.042Z,14.47
2019-02-18T15:47:43.169Z,13.95
2019-02-18T15:50:13.554Z,14.38
2019-02-18T15:52:42.628Z,10.32
2019-02-18T15:55:12.512Z,13.03
2019-02-18T15:57:41.537Z,11.35
2019-02-18T16:00:14.196Z,11.03
2019-02-18T16:02:43.540Z,20.05
2019-02-18T16:05:12.575Z,13.40
2019-02-18T16:07:41.639Z,16.17
2019-02-18T16:10:11.209Z,16.60
2019-02-18T16:12:40.178Z,25.27
2019-02-18T16:15:11.158Z,18.90
2019-02-18T16:17:40.192Z,20.02
2019-02-18T16:20:11.883Z,24.18
2019-02-18T16:22:41.231Z,22.67
2019-02-18T16:25:15.776Z,19.82
2019-02-18T16:27:44.827Z,16.17
2019-02-18T16:30:15.310Z,26.37
2019-02-18T16:32:44.808Z,19.67
2019-02-18T16:35:13.992Z,20.95
2019-02-18T16:37:43.362Z,24.18
2019-02-18T16:40:17.493Z,23.85
2019-02-18T16:42:46.690Z,16.25
2019-02-18T16:45:16.208Z,17.90
2019-02-18T16:47:45.237Z,16.17
2019-02-18T16:50:14.388Z,15.75
2019-02-18T16:52:43.524Z,22.55
2019-02-18T16:55:14.102Z,16.32
2019-02-18T16:57:43.219Z,15.48
2019-02-18T17:00:17.173Z,13.72
2019-02-18T17:02:46.135Z,16.15
2019-02-18T17:05:15.247Z,18.23
2019-02-18T17:07:44.427Z,19.60
2019-02-18T17:10:13.934Z,15.90
2019-02-18T17:12:43.274Z,14.73
2019-02-18T17:15:14.068Z,15.08
2019-02-18T17:17:43.117Z,21.30
2019-02-18T17:20:12.442Z,16.30
2019-02-18T17:22:41.562Z,14.40
2019-02-18T17:25:13.401Z,16.75
2019-02-18T17:27:42.458Z,20.82
2019-02-18T17:30:14.187Z,15.10
2019-02-18T17:32:43.622Z,13.43
2019-02-18T17:35:14.005Z,16.10
2019-02-18T17:37:43.181Z,19.73
2019-02-18T17:40:13.900Z,12.73
2019-02-18T17:42:43.888Z,16.52
2019-02-18T17:45:15.504Z,15.83
2019-02-18T17:47:44.652Z,13.20
2019-02-18T17:50:15.109Z,14.78
2019-02-18T17:52:44.411Z,16.73
2019-02-18T17:55:15.959Z,19.17
2019-02-18T17:57:45.002Z,16.55
2019-02-18T18:00:16.853Z,14.75
2019-02-18T18:02:45.897Z,17.10
2019-02-18T18:05:15.664Z,17.90
2019-02-18T18:07:44.723Z,18.12
2019-02-18T18:10:14.145Z,15.32
2019-02-18T18:12:43.186Z,18.45
2019-02-18T18:15:16.676Z,18.25
2019-02-18T18:17:45.771Z,19.15
2019-02-18T18:20:16.010Z,18.02
2019-02-18T18:22:46.597Z,15.48
2019-02-18T18:25:15.942Z,20.77
2019-02-18T18:27:45.100Z,15.15
2019-02-18T18:30:18.910Z,16.32
2019-02-18T18:32:48.115Z,18.02
2019-02-18T18:35:17.439Z,20.43
2019-02-18T18:37:46.474Z,18.45
2019-02-18T18:40:17.368Z,17.60
2019-02-18T18:42:46.360Z,17.73
2019-02-18T18:45:17.145Z,18.70
2019-02-18T18:47:46.323Z,19.60
2019-02-18T18:50:20.377Z,16.65
2019-02-18T18:52:49.486Z,21.77
2019-02-18T18:55:18.547Z,21.15
2019-02-18T18:57:47.579Z,18.07
2019-02-18T19:00:24.574Z,18.52
2019-02-18T19:02:53.770Z,19.35
2019-02-18T19:05:23.149Z,25.55
2019-02-18T19:07:52.213Z,16.30
2019-02-18T19:10:21.323Z,17.98
2019-02-18T19:12:50.374Z,23.10
2019-02-18T19:15:19.582Z,34.70
2019-02-18T19:17:48.638Z,34.98
2019-02-18T19:20:17.642Z,40.03
2019-02-18T19:22:46.702Z,29.10
2019-02-18T19:25:16.001Z,32.03
2019-02-18T19:27:45.129Z,29.45
2019-02-18T19:30:23.525Z,28.85
2019-02-18T19:32:52.766Z,35.92
2019-02-18T19:35:22.067Z,40.83
2019-02-18T19:37:51.146Z,31.37
2019-02-18T19:40:20.231Z,32.58
2019-02-18T19:42:53.540Z,34.38
2019-02-18T19:45:23.761Z,38.63
2019-02-18T19:47:52.806Z,34.35
2019-02-18T19:50:21.855Z,35.28
2019-02-18T19:52:50.913Z,37.00
2019-02-18T19:55:20.114Z,31.97
2019-02-18T19:57:49.162Z,37.73
2019-02-18T20:00:19.857Z,37.85
2019-02-18T20:02:49.353Z,33.90
2019-02-18T20:05:18.614Z,42.30
2019-02-18T20:07:47.747Z,36.53
2019-02-18T20:10:17.177Z,39.42
2019-02-18T20:12:46.269Z,37.55
2019-02-18T20:15:16.327Z,38.17
2019-02-18T20:17:45.403Z,36.25
2019-02-18T20:20:16.204Z,34.90
2019-02-18T20:22:45.186Z,35.68
2019-02-18T20:25:14.224Z,39.58
2019-02-18T20:27:43.278Z,41.20
2019-02-18T20:30:14.035Z,39.53
2019-02-18T20:32:43.208Z,42.73
2019-02-18T20:35:12.609Z,38.23
2019-02-18T20:37:41.744Z,39.78
2019-02-18T20:40:11.842Z,36.85
2019-02-18T20:42:41.414Z,35.30
2019-02-18T20:45:12.030Z,33.75
2019-02-18T20:47:41.202Z,36.17
2019-02-18T20:50:12.210Z,35.68
2019-02-18T20:52:41.955Z,29.65
2019-02-18T20:55:15.540Z,34.13
2019-02-18T20:57:44.724Z,31.33
2019-02-18T21:00:20.691Z,30.97
2019-02-18T21:02:49.723Z,35.85
2019-02-18T21:05:19.114Z,31.57
2019-02-18T21:07:48.157Z,29.72
2019-02-18T21:10:19.355Z,31.33
2019-02-18T21:12:48.407Z,30.77
2019-02-18T21:15:17.715Z,29.95
2019-02-18T21:17:46.980Z,28.62
2019-02-18T21:20:16.030Z,34.73
2019-02-18T21:22:45.109Z,29.55
2019-02-18T21:25:14.161Z,32.67
2019-02-18T21:27:43.207Z,30.82
2019-02-18T21:30:16.943Z,30.17
2019-02-18T21:32:46.021Z,28.90
2019-02-18T21:35:15.125Z,29.40
2019-02-18T21:37:45.099Z,26.87
2019-02-18T21:40:14.563Z,25.92
2019-02-18T21:42:43.904Z,27.13
2019-02-18T21:45:16.691Z,25.97
2019-02-18T21:47:45.737Z,27.02
2019-02-18T21:50:14.971Z,26.30
2019-02-18T21:52:44.290Z,26.70
2019-02-18T21:55:14.344Z,26.57
2019-02-18T21:57:43.480Z,26.52
2019-02-18T22:00:19.452Z,26.00
2019-02-18T22:02:48.578Z,25.08
2019-02-18T22:05:18.183Z,26.57
2019-02-18T22:07:47.222Z,25.57
2019-02-18T22:10:16.299Z,26.00
2019-02-18T22:12:45.274Z,23.85
2019-02-18T22:15:15.346Z,26.48
2019-02-18T22:17:44.416Z,29.95
2019-02-18T22:20:14.652Z,26.60
2019-02-18T22:22:43.825Z,23.12
2019-02-18T22:25:13.781Z,24.63
2019-02-18T22:27:43.149Z,24.98
2019-02-18T22:30:14.561Z,26.57
2019-02-18T22:32:43.961Z,24.00
2019-02-18T22:35:12.956Z,25.15
2019-02-18T22:37:42.116Z,23.27
2019-02-18T22:40:12.634Z,24.18
2019-02-18T22:42:41.778Z,26.55
2019-02-18T22:45:11.784Z,24.60
2019-02-18T22:47:42.104Z,26.82
2019-02-18T22:50:12.416Z,26.68
2019-02-18T22:52:41.386Z,25.45
2019-02-18T22:55:11.647Z,23.32
2019-02-18T22:57:40.688Z,25.25
2019-02-18T23:00:43.781Z,25.82
2019-02-18T23:03:13.592Z,26.77
2019-02-18T23:05:42.695Z,28.20
2019-02-18T23:08:11.760Z,25.10
2019-02-18T23:10:40.799Z,26.33
2019-02-18T23:13:09.871Z,26.33
2019-02-18T23:15:39.186Z,24.95
2019-02-18T23:18:08.342Z,28.40
2019-02-18T23:20:37.393Z,27.30
2019-02-18T23:23:06.413Z,25.45
2019-02-18T23:25:35.382Z,28.07
2019-02-18T23:28:04.725Z,28.73
2019-02-18T23:30:34.230Z,25.88
2019-02-18T23:33:03.222Z,24.15
2019-02-18T23:35:32.228Z,26.62
2019-02-18T23:38:01.268Z,28.83
2019-02-18T23:40:30.229Z,26.55
2019-02-18T23:42:59.309Z,25.90
2019-02-18T23:45:28.380Z,24.75
2019-02-18T23:47:57.418Z,26.30
2019-02-18T23:50:26.614Z,26.95
2019-02-18T23:52:55.737Z,27.95
2019-02-18T23:55:24.862Z,28.83
2019-02-18T23:57:53.922Z,26.23
